<?xml version="1.0" encoding="UTF-8" standalone="no" ?>
<gpx xmlns="http://www.topografix.com/GPX/1/1" xmlns:xsi="http://www.w3.org/2001/XMLSchema-instance" xsi:schemaLocation="http://www.topografix.com/GPX/1/1 http://www.topografix.com/GPX/1/1/gpx.xsd" version="1.1" creator="VisuGPX - https://www.visugpx.com">
  <metadata>
    <name>Balade chocques</name>
  </metadata>
  <trk>
    <name><![CDATA[Mon enregistrement du 21/08/2020-11909493]]></name>
    <extensions>
      <line xmlns="http://www.topografix.com/GPX/gpx_style/0/2">
        <color>0000FF</color>
        <width>4</width>
      </line>
    </extensions>
    <trkseg>
      <trkpt lat="50.53267" lon="2.58782">
        <ele>44.8</ele>
        <time>2025-07-18T14:41:46Z</time>
      </trkpt>
      <trkpt lat="50.5284" lon="2.59455">
        <ele>37.7</ele>
      </trkpt>
      <trkpt lat="50.52896" lon="2.5958">
        <ele>38</ele>
      </trkpt>
      <trkpt lat="50.5273" lon="2.59718">
        <ele>35</ele>
      </trkpt>
      <trkpt lat="50.52661" lon="2.59873">
        <ele>37.2</ele>
      </trkpt>
      <trkpt lat="50.52616" lon="2.59892">
        <ele>33.9</ele>
      </trkpt>
      <trkpt lat="50.52534" lon="2.59862">
        <ele>40</ele>
        <time>2025-07-18T14:41:57Z</time>
      </trkpt>
      <trkpt lat="50.52484" lon="2.5982">
        <ele>45</ele>
        <time>2025-07-18T14:42:10Z</time>
      </trkpt>
      <trkpt lat="50.52433" lon="2.59787">
        <ele>44</ele>
        <time>2025-07-18T14:42:23Z</time>
      </trkpt>
      <trkpt lat="50.52361" lon="2.59713">
        <ele>42</ele>
        <time>2025-07-18T14:42:43Z</time>
      </trkpt>
      <trkpt lat="50.52362" lon="2.59702">
        <ele>43</ele>
        <time>2025-07-18T14:42:45Z</time>
      </trkpt>
      <trkpt lat="50.52366" lon="2.59702">
        <ele>43</ele>
        <time>2025-07-18T14:42:46Z</time>
      </trkpt>
      <trkpt lat="50.52452" lon="2.59739">
        <ele>47</ele>
        <time>2025-07-18T14:43:07Z</time>
      </trkpt>
      <trkpt lat="50.52516" lon="2.59747">
        <ele>50</ele>
        <time>2025-07-18T14:43:22Z</time>
      </trkpt>
      <trkpt lat="50.52529" lon="2.5976">
        <ele>48</ele>
        <time>2025-07-18T14:43:25Z</time>
      </trkpt>
      <trkpt lat="50.52543" lon="2.59796">
        <ele>44</ele>
        <time>2025-07-18T14:43:32Z</time>
      </trkpt>
      <trkpt lat="50.52556" lon="2.59798">
        <ele>43</ele>
        <time>2025-07-18T14:43:35Z</time>
      </trkpt>
      <trkpt lat="50.52559" lon="2.59794">
        <ele>43</ele>
        <time>2025-07-18T14:43:36Z</time>
      </trkpt>
      <trkpt lat="50.52573" lon="2.59735">
        <ele>46</ele>
        <time>2025-07-18T14:43:45Z</time>
      </trkpt>
      <trkpt lat="50.52581" lon="2.5968">
        <ele>48</ele>
        <time>2025-07-18T14:43:53Z</time>
      </trkpt>
      <trkpt lat="50.52574" lon="2.59569">
        <ele>53</ele>
        <time>2025-07-18T14:44:10Z</time>
      </trkpt>
      <trkpt lat="50.52578" lon="2.59496">
        <ele>55</ele>
        <time>2025-07-18T14:44:21Z</time>
      </trkpt>
      <trkpt lat="50.52573" lon="2.59476">
        <ele>55</ele>
        <time>2025-07-18T14:44:24Z</time>
      </trkpt>
      <trkpt lat="50.52548" lon="2.59426">
        <ele>57</ele>
        <time>2025-07-18T14:44:33Z</time>
      </trkpt>
      <trkpt lat="50.52537" lon="2.59418">
        <ele>58</ele>
        <time>2025-07-18T14:44:36Z</time>
      </trkpt>
      <trkpt lat="50.52508" lon="2.59418">
        <ele>59</ele>
        <time>2025-07-18T14:44:43Z</time>
      </trkpt>
      <trkpt lat="50.52491" lon="2.59407">
        <ele>59</ele>
        <time>2025-07-18T14:44:47Z</time>
      </trkpt>
      <trkpt lat="50.52471" lon="2.59381">
        <ele>58</ele>
        <time>2025-07-18T14:44:53Z</time>
      </trkpt>
      <trkpt lat="50.52455" lon="2.59337">
        <ele>57</ele>
        <time>2025-07-18T14:45:01Z</time>
      </trkpt>
      <trkpt lat="50.52448" lon="2.59336">
        <ele>57</ele>
        <time>2025-07-18T14:45:02Z</time>
      </trkpt>
      <trkpt lat="50.52424" lon="2.59344">
        <ele>56</ele>
        <time>2025-07-18T14:45:08Z</time>
      </trkpt>
      <trkpt lat="50.5239" lon="2.59376">
        <ele>54</ele>
        <time>2025-07-18T14:45:17Z</time>
      </trkpt>
      <trkpt lat="50.52361" lon="2.59388">
        <ele>53</ele>
        <time>2025-07-18T14:45:24Z</time>
      </trkpt>
      <trkpt lat="50.52319" lon="2.59413">
        <ele>52</ele>
        <time>2025-07-18T14:45:35Z</time>
      </trkpt>
      <trkpt lat="50.52282" lon="2.59442">
        <ele>48</ele>
        <time>2025-07-18T14:45:45Z</time>
      </trkpt>
      <trkpt lat="50.52243" lon="2.59453">
        <ele>44</ele>
        <time>2025-07-18T14:45:54Z</time>
      </trkpt>
      <trkpt lat="50.52225" lon="2.59499">
        <ele>43</ele>
        <time>2025-07-18T14:46:02Z</time>
      </trkpt>
      <trkpt lat="50.52216" lon="2.59587">
        <ele>39</ele>
        <time>2025-07-18T14:46:15Z</time>
      </trkpt>
      <trkpt lat="50.52209" lon="2.596">
        <ele>39</ele>
        <time>2025-07-18T14:46:18Z</time>
      </trkpt>
      <trkpt lat="50.522" lon="2.59602">
        <ele>38</ele>
        <time>2025-07-18T14:46:20Z</time>
      </trkpt>
      <trkpt lat="50.52145" lon="2.5957">
        <ele>37</ele>
        <time>2025-07-18T14:46:33Z</time>
      </trkpt>
      <trkpt lat="50.52099" lon="2.59557">
        <ele>38</ele>
        <time>2025-07-18T14:46:44Z</time>
      </trkpt>
      <trkpt lat="50.52076" lon="2.59559">
        <ele>38</ele>
        <time>2025-07-18T14:46:50Z</time>
      </trkpt>
      <trkpt lat="50.52003" lon="2.59586">
        <ele>37</ele>
        <time>2025-07-18T14:47:07Z</time>
      </trkpt>
      <trkpt lat="50.51982" lon="2.59587">
        <ele>37</ele>
        <time>2025-07-18T14:47:12Z</time>
      </trkpt>
      <trkpt lat="50.51934" lon="2.59578">
        <ele>37</ele>
        <time>2025-07-18T14:47:23Z</time>
      </trkpt>
      <trkpt lat="50.51894" lon="2.59551">
        <ele>37</ele>
        <time>2025-07-18T14:47:34Z</time>
      </trkpt>
      <trkpt lat="50.51874" lon="2.59524">
        <ele>37</ele>
        <time>2025-07-18T14:47:40Z</time>
      </trkpt>
      <trkpt lat="50.51809" lon="2.59459">
        <ele>37</ele>
        <time>2025-07-18T14:47:58Z</time>
      </trkpt>
      <trkpt lat="50.51735" lon="2.59373">
        <ele>38</ele>
        <time>2025-07-18T14:48:19Z</time>
      </trkpt>
      <trkpt lat="50.51659" lon="2.59255">
        <ele>37</ele>
        <time>2025-07-18T14:48:44Z</time>
      </trkpt>
      <trkpt lat="50.51627" lon="2.59215">
        <ele>37</ele>
        <time>2025-07-18T14:48:54Z</time>
      </trkpt>
      <trkpt lat="50.51566" lon="2.59105">
        <ele>37</ele>
        <time>2025-07-18T14:49:15Z</time>
      </trkpt>
      <trkpt lat="50.51546" lon="2.59085">
        <ele>36</ele>
        <time>2025-07-18T14:49:21Z</time>
      </trkpt>
      <trkpt lat="50.51531" lon="2.59063">
        <ele>36</ele>
        <time>2025-07-18T14:49:26Z</time>
      </trkpt>
      <trkpt lat="50.51414" lon="2.58872">
        <ele>39</ele>
        <time>2025-07-18T14:50:05Z</time>
      </trkpt>
      <trkpt lat="50.51145" lon="2.5846">
        <ele>32</ele>
        <time>2025-07-18T14:51:33Z</time>
      </trkpt>
      <trkpt lat="50.5106" lon="2.58349">
        <ele>32</ele>
        <time>2025-07-18T14:51:59Z</time>
      </trkpt>
      <trkpt lat="50.50895" lon="2.58167">
        <ele>31</ele>
        <time>2025-07-18T14:52:46Z</time>
      </trkpt>
      <trkpt lat="50.5087" lon="2.58113">
        <ele>31</ele>
        <time>2025-07-18T14:52:56Z</time>
      </trkpt>
      <trkpt lat="50.50857" lon="2.58073">
        <ele>31</ele>
        <time>2025-07-18T14:53:02Z</time>
      </trkpt>
      <trkpt lat="50.50805" lon="2.58003">
        <ele>31</ele>
        <time>2025-07-18T14:53:18Z</time>
      </trkpt>
      <trkpt lat="50.50786" lon="2.57994">
        <ele>32</ele>
        <time>2025-07-18T14:53:23Z</time>
      </trkpt>
      <trkpt lat="50.50765" lon="2.57992">
        <ele>32</ele>
        <time>2025-07-18T14:53:28Z</time>
      </trkpt>
      <trkpt lat="50.50737" lon="2.57959">
        <ele>33</ele>
        <time>2025-07-18T14:53:36Z</time>
      </trkpt>
      <trkpt lat="50.50691" lon="2.57829">
        <ele>32</ele>
        <time>2025-07-18T14:53:58Z</time>
      </trkpt>
      <trkpt lat="50.50636" lon="2.57755">
        <ele>34</ele>
        <time>2025-07-18T14:54:15Z</time>
      </trkpt>
      <trkpt lat="50.50615" lon="2.57717">
        <ele>34</ele>
        <time>2025-07-18T14:54:22Z</time>
      </trkpt>
      <trkpt lat="50.50604" lon="2.57684">
        <ele>35</ele>
        <time>2025-07-18T14:54:28Z</time>
      </trkpt>
      <trkpt lat="50.50583" lon="2.57675">
        <ele>36</ele>
        <time>2025-07-18T14:54:33Z</time>
      </trkpt>
      <trkpt lat="50.50575" lon="2.57658">
        <ele>36</ele>
        <time>2025-07-18T14:54:36Z</time>
      </trkpt>
      <trkpt lat="50.50512" lon="2.57487">
        <ele>34</ele>
        <time>2025-07-18T14:55:06Z</time>
      </trkpt>
      <trkpt lat="50.50499" lon="2.57465">
        <ele>34</ele>
        <time>2025-07-18T14:55:10Z</time>
      </trkpt>
      <trkpt lat="50.50443" lon="2.57328">
        <ele>33</ele>
        <time>2025-07-18T14:55:34Z</time>
      </trkpt>
      <trkpt lat="50.50354" lon="2.57103">
        <ele>34</ele>
        <time>2025-07-18T14:56:14Z</time>
      </trkpt>
      <trkpt lat="50.50305" lon="2.56968">
        <ele>34</ele>
        <time>2025-07-18T14:56:37Z</time>
      </trkpt>
      <trkpt lat="50.50278" lon="2.56908">
        <ele>35</ele>
        <time>2025-07-18T14:56:48Z</time>
      </trkpt>
      <trkpt lat="50.50249" lon="2.5682">
        <ele>33</ele>
        <time>2025-07-18T14:57:02Z</time>
      </trkpt>
      <trkpt lat="50.50212" lon="2.56767">
        <ele>33</ele>
        <time>2025-07-18T14:57:14Z</time>
      </trkpt>
      <trkpt lat="50.50178" lon="2.56667">
        <ele>34</ele>
        <time>2025-07-18T14:57:31Z</time>
      </trkpt>
      <trkpt lat="50.50073" lon="2.56395">
        <ele>33</ele>
        <time>2025-07-18T14:58:18Z</time>
      </trkpt>
      <trkpt lat="50.5004" lon="2.56341">
        <ele>33</ele>
        <time>2025-07-18T14:58:29Z</time>
      </trkpt>
      <trkpt lat="50.50008" lon="2.56309">
        <ele>33</ele>
        <time>2025-07-18T14:58:38Z</time>
      </trkpt>
      <trkpt lat="50.4998" lon="2.56271">
        <ele>33</ele>
        <time>2025-07-18T14:58:47Z</time>
      </trkpt>
      <trkpt lat="50.49971" lon="2.56249">
        <ele>34</ele>
        <time>2025-07-18T14:58:51Z</time>
      </trkpt>
      <trkpt lat="50.49959" lon="2.56186">
        <ele>34</ele>
        <time>2025-07-18T14:59:00Z</time>
      </trkpt>
      <trkpt lat="50.49937" lon="2.56133">
        <ele>33</ele>
        <time>2025-07-18T14:59:10Z</time>
      </trkpt>
      <trkpt lat="50.49927" lon="2.56095">
        <ele>32</ele>
        <time>2025-07-18T14:59:16Z</time>
      </trkpt>
      <trkpt lat="50.49802" lon="2.55871">
        <ele>34</ele>
        <time>2025-07-18T15:00:00Z</time>
      </trkpt>
      <trkpt lat="50.49782" lon="2.55852">
        <ele>34</ele>
        <time>2025-07-18T15:00:06Z</time>
      </trkpt>
      <trkpt lat="50.49748" lon="2.55803">
        <ele>34</ele>
        <time>2025-07-18T15:00:16Z</time>
      </trkpt>
      <trkpt lat="50.49736" lon="2.55774">
        <ele>34</ele>
        <time>2025-07-18T15:00:22Z</time>
      </trkpt>
      <trkpt lat="50.4971" lon="2.5574">
        <ele>34</ele>
        <time>2025-07-18T15:00:29Z</time>
      </trkpt>
      <trkpt lat="50.49687" lon="2.5572">
        <ele>34</ele>
        <time>2025-07-18T15:00:36Z</time>
      </trkpt>
      <trkpt lat="50.49676" lon="2.557">
        <ele>35</ele>
        <time>2025-07-18T15:00:39Z</time>
      </trkpt>
      <trkpt lat="50.49613" lon="2.55624">
        <ele>35</ele>
        <time>2025-07-18T15:00:58Z</time>
      </trkpt>
      <trkpt lat="50.49604" lon="2.55629">
        <ele>35</ele>
        <time>2025-07-18T15:01:00Z</time>
      </trkpt>
      <trkpt lat="50.49595" lon="2.55644">
        <ele>35</ele>
        <time>2025-07-18T15:01:03Z</time>
      </trkpt>
      <trkpt lat="50.49592" lon="2.55653">
        <ele>35</ele>
        <time>2025-07-18T15:01:05Z</time>
      </trkpt>
      <trkpt lat="50.49597" lon="2.55663">
        <ele>35</ele>
        <time>2025-07-18T15:01:07Z</time>
      </trkpt>
      <trkpt lat="50.49651" lon="2.55719">
        <ele>35</ele>
        <time>2025-07-18T15:01:22Z</time>
      </trkpt>
      <trkpt lat="50.49757" lon="2.55845">
        <ele>35</ele>
        <time>2025-07-18T15:01:53Z</time>
      </trkpt>
      <trkpt lat="50.49868" lon="2.56037">
        <ele>34</ele>
        <time>2025-07-18T15:02:31Z</time>
      </trkpt>
      <trkpt lat="50.49869" lon="2.56057">
        <ele>34</ele>
        <time>2025-07-18T15:02:34Z</time>
      </trkpt>
      <trkpt lat="50.49861" lon="2.56065">
        <ele>34</ele>
        <time>2025-07-18T15:02:37Z</time>
      </trkpt>
      <trkpt lat="50.49824" lon="2.56061">
        <ele>35</ele>
        <time>2025-07-18T15:02:45Z</time>
      </trkpt>
      <trkpt lat="50.49798" lon="2.56083">
        <ele>34</ele>
        <time>2025-07-18T15:02:52Z</time>
      </trkpt>
      <trkpt lat="50.49789" lon="2.56102">
        <ele>35</ele>
        <time>2025-07-18T15:02:56Z</time>
      </trkpt>
      <trkpt lat="50.49797" lon="2.56125">
        <ele>35</ele>
        <time>2025-07-18T15:03:00Z</time>
      </trkpt>
      <trkpt lat="50.49796" lon="2.56138">
        <ele>35</ele>
        <time>2025-07-18T15:03:02Z</time>
      </trkpt>
      <trkpt lat="50.49737" lon="2.56211">
        <ele>43</ele>
        <time>2025-07-18T15:03:19Z</time>
      </trkpt>
      <trkpt lat="50.4971" lon="2.56276">
        <ele>49</ele>
        <time>2025-07-18T15:03:31Z</time>
      </trkpt>
      <trkpt lat="50.49689" lon="2.56314">
        <ele>52</ele>
        <time>2025-07-18T15:03:38Z</time>
      </trkpt>
      <trkpt lat="50.49674" lon="2.5633">
        <ele>53</ele>
        <time>2025-07-18T15:03:42Z</time>
      </trkpt>
      <trkpt lat="50.49636" lon="2.56358">
        <ele>56</ele>
        <time>2025-07-18T15:03:52Z</time>
      </trkpt>
      <trkpt lat="50.49599" lon="2.56375">
        <ele>58</ele>
        <time>2025-07-18T15:04:01Z</time>
      </trkpt>
      <trkpt lat="50.49568" lon="2.5638">
        <ele>59</ele>
        <time>2025-07-18T15:04:08Z</time>
      </trkpt>
      <trkpt lat="50.49554" lon="2.56359">
        <ele>61</ele>
        <time>2025-07-18T15:04:13Z</time>
      </trkpt>
      <trkpt lat="50.49496" lon="2.56319">
        <ele>67</ele>
        <time>2025-07-18T15:04:28Z</time>
      </trkpt>
      <trkpt lat="50.49481" lon="2.563">
        <ele>69</ele>
        <time>2025-07-18T15:04:32Z</time>
      </trkpt>
      <trkpt lat="50.49485" lon="2.56294">
        <ele>70</ele>
        <time>2025-07-18T15:04:33Z</time>
      </trkpt>
      <trkpt lat="50.49503" lon="2.56287">
        <ele>70</ele>
        <time>2025-07-18T15:04:38Z</time>
      </trkpt>
      <trkpt lat="50.49574" lon="2.56245">
        <ele>70</ele>
        <time>2025-07-18T15:04:56Z</time>
      </trkpt>
      <trkpt lat="50.49602" lon="2.56235">
        <ele>67</ele>
        <time>2025-07-18T15:05:02Z</time>
      </trkpt>
      <trkpt lat="50.49623" lon="2.5622">
        <ele>64</ele>
        <time>2025-07-18T15:05:08Z</time>
      </trkpt>
      <trkpt lat="50.4964" lon="2.56203">
        <ele>62</ele>
        <time>2025-07-18T15:05:12Z</time>
      </trkpt>
      <trkpt lat="50.49691" lon="2.56124">
        <ele>52</ele>
        <time>2025-07-18T15:05:29Z</time>
      </trkpt>
      <trkpt lat="50.497" lon="2.56105">
        <ele>50</ele>
        <time>2025-07-18T15:05:33Z</time>
      </trkpt>
      <trkpt lat="50.49701" lon="2.56089">
        <ele>49</ele>
        <time>2025-07-18T15:05:35Z</time>
      </trkpt>
      <trkpt lat="50.49694" lon="2.56056">
        <ele>49</ele>
        <time>2025-07-18T15:05:40Z</time>
      </trkpt>
      <trkpt lat="50.49681" lon="2.56043">
        <ele>50</ele>
        <time>2025-07-18T15:05:44Z</time>
      </trkpt>
      <trkpt lat="50.49652" lon="2.55989">
        <ele>50</ele>
        <time>2025-07-18T15:05:54Z</time>
      </trkpt>
      <trkpt lat="50.49637" lon="2.5597">
        <ele>50</ele>
        <time>2025-07-18T15:05:59Z</time>
      </trkpt>
      <trkpt lat="50.49589" lon="2.55939">
        <ele>54</ele>
        <time>2025-07-18T15:06:11Z</time>
      </trkpt>
      <trkpt lat="50.49555" lon="2.55896">
        <ele>52</ele>
        <time>2025-07-18T15:06:21Z</time>
      </trkpt>
      <trkpt lat="50.49533" lon="2.55884">
        <ele>54</ele>
        <time>2025-07-18T15:06:26Z</time>
      </trkpt>
      <trkpt lat="50.49503" lon="2.55841">
        <ele>50</ele>
        <time>2025-07-18T15:06:36Z</time>
      </trkpt>
      <trkpt lat="50.4945" lon="2.55797">
        <ele>52</ele>
        <time>2025-07-18T15:06:50Z</time>
      </trkpt>
      <trkpt lat="50.49437" lon="2.55793">
        <ele>53</ele>
        <time>2025-07-18T15:06:53Z</time>
      </trkpt>
      <trkpt lat="50.49387" lon="2.55753">
        <ele>53</ele>
        <time>2025-07-18T15:07:06Z</time>
      </trkpt>
      <trkpt lat="50.49366" lon="2.55746">
        <ele>55</ele>
        <time>2025-07-18T15:07:11Z</time>
      </trkpt>
      <trkpt lat="50.4935" lon="2.55734">
        <ele>56</ele>
        <time>2025-07-18T15:07:15Z</time>
      </trkpt>
      <trkpt lat="50.49328" lon="2.55706">
        <ele>53</ele>
        <time>2025-07-18T15:07:22Z</time>
      </trkpt>
      <trkpt lat="50.49287" lon="2.55681">
        <ele>57</ele>
        <time>2025-07-18T15:07:32Z</time>
      </trkpt>
      <trkpt lat="50.49271" lon="2.55664">
        <ele>57</ele>
        <time>2025-07-18T15:07:37Z</time>
      </trkpt>
      <trkpt lat="50.49265" lon="2.55664">
        <ele>59</ele>
        <time>2025-07-18T15:07:38Z</time>
      </trkpt>
      <trkpt lat="50.49259" lon="2.55658">
        <ele>59</ele>
        <time>2025-07-18T15:07:40Z</time>
      </trkpt>
      <trkpt lat="50.4926" lon="2.55642">
        <ele>55</ele>
        <time>2025-07-18T15:07:42Z</time>
      </trkpt>
      <trkpt lat="50.49268" lon="2.55622">
        <ele>49</ele>
        <time>2025-07-18T15:07:46Z</time>
      </trkpt>
      <trkpt lat="50.49305" lon="2.55607">
        <ele>41</ele>
        <time>2025-07-18T15:07:55Z</time>
      </trkpt>
      <trkpt lat="50.49326" lon="2.5559">
        <ele>36</ele>
        <time>2025-07-18T15:08:00Z</time>
      </trkpt>
      <trkpt lat="50.49332" lon="2.55578">
        <ele>35</ele>
        <time>2025-07-18T15:08:02Z</time>
      </trkpt>
      <trkpt lat="50.4937" lon="2.55447">
        <ele>36</ele>
        <time>2025-07-18T15:08:24Z</time>
      </trkpt>
      <trkpt lat="50.49409" lon="2.55247">
        <ele>39</ele>
        <time>2025-07-18T15:08:55Z</time>
      </trkpt>
      <trkpt lat="50.49416" lon="2.55223">
        <ele>39</ele>
        <time>2025-07-18T15:08:59Z</time>
      </trkpt>
      <trkpt lat="50.4942" lon="2.55221">
        <ele>39</ele>
        <time>2025-07-18T15:09:00Z</time>
      </trkpt>
      <trkpt lat="50.49431" lon="2.55229">
        <ele>39</ele>
        <time>2025-07-18T15:09:03Z</time>
      </trkpt>
      <trkpt lat="50.49474" lon="2.55298">
        <ele>39</ele>
        <time>2025-07-18T15:09:17Z</time>
      </trkpt>
      <trkpt lat="50.49562" lon="2.55404">
        <ele>36</ele>
        <time>2025-07-18T15:09:43Z</time>
      </trkpt>
      <trkpt lat="50.49582" lon="2.55443">
        <ele>36</ele>
        <time>2025-07-18T15:09:50Z</time>
      </trkpt>
      <trkpt lat="50.4959" lon="2.55506">
        <ele>35</ele>
        <time>2025-07-18T15:10:00Z</time>
      </trkpt>
      <trkpt lat="50.496" lon="2.55529">
        <ele>35</ele>
        <time>2025-07-18T15:10:04Z</time>
      </trkpt>
      <trkpt lat="50.4962" lon="2.55557">
        <ele>36</ele>
        <time>2025-07-18T15:10:10Z</time>
      </trkpt>
      <trkpt lat="50.4965" lon="2.55567">
        <ele>36</ele>
        <time>2025-07-18T15:10:17Z</time>
      </trkpt>
      <trkpt lat="50.49659" lon="2.55559">
        <ele>36</ele>
        <time>2025-07-18T15:10:20Z</time>
      </trkpt>
      <trkpt lat="50.4967" lon="2.55538">
        <ele>36</ele>
        <time>2025-07-18T15:10:24Z</time>
      </trkpt>
      <trkpt lat="50.49648" lon="2.55482">
        <ele>35</ele>
        <time>2025-07-18T15:10:34Z</time>
      </trkpt>
      <trkpt lat="50.4965" lon="2.55477">
        <ele>35</ele>
        <time>2025-07-18T15:10:34Z</time>
      </trkpt>
      <trkpt lat="50.4966" lon="2.55471">
        <ele>35</ele>
        <time>2025-07-18T15:10:37Z</time>
      </trkpt>
      <trkpt lat="50.49681" lon="2.55499">
        <ele>35</ele>
        <time>2025-07-18T15:10:43Z</time>
      </trkpt>
      <trkpt lat="50.497" lon="2.55486">
        <ele>35</ele>
        <time>2025-07-18T15:10:48Z</time>
      </trkpt>
      <trkpt lat="50.49744" lon="2.55419">
        <ele>34</ele>
        <time>2025-07-18T15:11:03Z</time>
      </trkpt>
      <trkpt lat="50.49759" lon="2.5541">
        <ele>34</ele>
        <time>2025-07-18T15:11:06Z</time>
      </trkpt>
      <trkpt lat="50.49878" lon="2.55448">
        <ele>38</ele>
        <time>2025-07-18T15:11:35Z</time>
      </trkpt>
      <trkpt lat="50.50031" lon="2.55447">
        <ele>42</ele>
        <time>2025-07-18T15:12:10Z</time>
      </trkpt>
      <trkpt lat="50.50096" lon="2.55459">
        <ele>45</ele>
        <time>2025-07-18T15:12:26Z</time>
      </trkpt>
      <trkpt lat="50.50129" lon="2.55453">
        <ele>51</ele>
        <time>2025-07-18T15:12:33Z</time>
      </trkpt>
      <trkpt lat="50.50161" lon="2.55429">
        <ele>56</ele>
        <time>2025-07-18T15:12:42Z</time>
      </trkpt>
      <trkpt lat="50.50169" lon="2.55417">
        <ele>58</ele>
        <time>2025-07-18T15:12:44Z</time>
      </trkpt>
      <trkpt lat="50.50169" lon="2.55389">
        <ele>59</ele>
        <time>2025-07-18T15:12:48Z</time>
      </trkpt>
      <trkpt lat="50.50181" lon="2.55309">
        <ele>63</ele>
        <time>2025-07-18T15:13:01Z</time>
      </trkpt>
      <trkpt lat="50.50197" lon="2.55293">
        <ele>66</ele>
        <time>2025-07-18T15:13:05Z</time>
      </trkpt>
      <trkpt lat="50.50219" lon="2.55282">
        <ele>69</ele>
        <time>2025-07-18T15:13:10Z</time>
      </trkpt>
      <trkpt lat="50.50234" lon="2.55279">
        <ele>72</ele>
        <time>2025-07-18T15:13:14Z</time>
      </trkpt>
      <trkpt lat="50.50253" lon="2.55266">
        <ele>74</ele>
        <time>2025-07-18T15:13:19Z</time>
      </trkpt>
      <trkpt lat="50.50261" lon="2.5527">
        <ele>75</ele>
        <time>2025-07-18T15:13:21Z</time>
      </trkpt>
      <trkpt lat="50.50268" lon="2.55283">
        <ele>75</ele>
        <time>2025-07-18T15:13:23Z</time>
      </trkpt>
      <trkpt lat="50.50285" lon="2.55293">
        <ele>76</ele>
        <time>2025-07-18T15:13:28Z</time>
      </trkpt>
      <trkpt lat="50.50299" lon="2.55292">
        <ele>77</ele>
        <time>2025-07-18T15:13:31Z</time>
      </trkpt>
      <trkpt lat="50.5034" lon="2.55277">
        <ele>78</ele>
        <time>2025-07-18T15:13:41Z</time>
      </trkpt>
      <trkpt lat="50.50363" lon="2.55275">
        <ele>79</ele>
        <time>2025-07-18T15:13:46Z</time>
      </trkpt>
      <trkpt lat="50.50392" lon="2.55261">
        <ele>81</ele>
        <time>2025-07-18T15:13:53Z</time>
      </trkpt>
      <trkpt lat="50.50406" lon="2.55268">
        <ele>82</ele>
        <time>2025-07-18T15:13:57Z</time>
      </trkpt>
      <trkpt lat="50.50417" lon="2.55258">
        <ele>82</ele>
        <time>2025-07-18T15:14:00Z</time>
      </trkpt>
      <trkpt lat="50.50431" lon="2.55274">
        <ele>83</ele>
        <time>2025-07-18T15:14:04Z</time>
      </trkpt>
      <trkpt lat="50.50439" lon="2.55274">
        <ele>84</ele>
        <time>2025-07-18T15:14:05Z</time>
      </trkpt>
      <trkpt lat="50.50451" lon="2.5526">
        <ele>84</ele>
        <time>2025-07-18T15:14:09Z</time>
      </trkpt>
      <trkpt lat="50.50503" lon="2.55235">
        <ele>87</ele>
        <time>2025-07-18T15:14:22Z</time>
      </trkpt>
      <trkpt lat="50.50547" lon="2.5522">
        <ele>87</ele>
        <time>2025-07-18T15:14:32Z</time>
      </trkpt>
      <trkpt lat="50.50608" lon="2.55188">
        <ele>88</ele>
        <time>2025-07-18T15:14:47Z</time>
      </trkpt>
      <trkpt lat="50.50628" lon="2.55172">
        <ele>87</ele>
        <time>2025-07-18T15:14:52Z</time>
      </trkpt>
      <trkpt lat="50.50678" lon="2.55113">
        <ele>89</ele>
        <time>2025-07-18T15:15:07Z</time>
      </trkpt>
      <trkpt lat="50.50697" lon="2.55099">
        <ele>90</ele>
        <time>2025-07-18T15:15:12Z</time>
      </trkpt>
      <trkpt lat="50.5073" lon="2.55083">
        <ele>90</ele>
        <time>2025-07-18T15:15:20Z</time>
      </trkpt>
      <trkpt lat="50.50741" lon="2.55071">
        <ele>90</ele>
        <time>2025-07-18T15:15:23Z</time>
      </trkpt>
      <trkpt lat="50.50758" lon="2.55062">
        <ele>90</ele>
        <time>2025-07-18T15:15:27Z</time>
      </trkpt>
      <trkpt lat="50.50762" lon="2.55078">
        <ele>89</ele>
        <time>2025-07-18T15:15:30Z</time>
      </trkpt>
      <trkpt lat="50.50759" lon="2.55118">
        <ele>89</ele>
        <time>2025-07-18T15:15:36Z</time>
      </trkpt>
      <trkpt lat="50.50762" lon="2.55168">
        <ele>89</ele>
        <time>2025-07-18T15:15:43Z</time>
      </trkpt>
      <trkpt lat="50.50749" lon="2.55227">
        <ele>89</ele>
        <time>2025-07-18T15:15:53Z</time>
      </trkpt>
      <trkpt lat="50.50749" lon="2.55274">
        <ele>88</ele>
        <time>2025-07-18T15:15:59Z</time>
      </trkpt>
      <trkpt lat="50.50789" lon="2.5538">
        <ele>87</ele>
        <time>2025-07-18T15:16:18Z</time>
      </trkpt>
      <trkpt lat="50.50811" lon="2.5553">
        <ele>85</ele>
        <time>2025-07-18T15:16:41Z</time>
      </trkpt>
      <trkpt lat="50.50845" lon="2.55608">
        <ele>84</ele>
        <time>2025-07-18T15:16:55Z</time>
      </trkpt>
      <trkpt lat="50.50868" lon="2.55647">
        <ele>85</ele>
        <time>2025-07-18T15:17:03Z</time>
      </trkpt>
      <trkpt lat="50.50959" lon="2.55747">
        <ele>87</ele>
        <time>2025-07-18T15:17:29Z</time>
      </trkpt>
      <trkpt lat="50.51004" lon="2.5577">
        <ele>87</ele>
        <time>2025-07-18T15:17:40Z</time>
      </trkpt>
      <trkpt lat="50.5104" lon="2.55812">
        <ele>87</ele>
        <time>2025-07-18T15:17:50Z</time>
      </trkpt>
      <trkpt lat="50.51072" lon="2.55842">
        <ele>88</ele>
        <time>2025-07-18T15:17:59Z</time>
      </trkpt>
      <trkpt lat="50.51078" lon="2.55854">
        <ele>88</ele>
        <time>2025-07-18T15:18:01Z</time>
      </trkpt>
      <trkpt lat="50.51072" lon="2.55879">
        <ele>88</ele>
        <time>2025-07-18T15:18:05Z</time>
      </trkpt>
      <trkpt lat="50.51062" lon="2.55895">
        <ele>88</ele>
        <time>2025-07-18T15:18:08Z</time>
      </trkpt>
      <trkpt lat="50.51041" lon="2.55915">
        <ele>87</ele>
        <time>2025-07-18T15:18:14Z</time>
      </trkpt>
      <trkpt lat="50.50824" lon="2.56002">
        <ele>85</ele>
        <time>2025-07-18T15:19:06Z</time>
      </trkpt>
      <trkpt lat="50.50747" lon="2.56084">
        <ele>88</ele>
        <time>2025-07-18T15:19:28Z</time>
      </trkpt>
      <trkpt lat="50.50716" lon="2.56124">
        <ele>85</ele>
        <time>2025-07-18T15:19:37Z</time>
      </trkpt>
      <trkpt lat="50.50706" lon="2.56147">
        <ele>84</ele>
        <time>2025-07-18T15:19:42Z</time>
      </trkpt>
      <trkpt lat="50.50687" lon="2.56161">
        <ele>82</ele>
        <time>2025-07-18T15:19:46Z</time>
      </trkpt>
      <trkpt lat="50.50681" lon="2.56157">
        <ele>81</ele>
        <time>2025-07-18T15:19:48Z</time>
      </trkpt>
      <trkpt lat="50.50678" lon="2.56148">
        <ele>82</ele>
        <time>2025-07-18T15:19:50Z</time>
      </trkpt>
      <trkpt lat="50.5068" lon="2.56112">
        <ele>83</ele>
        <time>2025-07-18T15:19:55Z</time>
      </trkpt>
      <trkpt lat="50.50668" lon="2.56075">
        <ele>84</ele>
        <time>2025-07-18T15:20:01Z</time>
      </trkpt>
      <trkpt lat="50.50659" lon="2.56022">
        <ele>84</ele>
        <time>2025-07-18T15:20:09Z</time>
      </trkpt>
      <trkpt lat="50.5064" lon="2.55997">
        <ele>82</ele>
        <time>2025-07-18T15:20:15Z</time>
      </trkpt>
      <trkpt lat="50.50603" lon="2.55961">
        <ele>77</ele>
        <time>2025-07-18T15:20:25Z</time>
      </trkpt>
      <trkpt lat="50.50617" lon="2.56086">
        <ele>75</ele>
        <time>2025-07-18T15:20:44Z</time>
      </trkpt>
      <trkpt lat="50.50619" lon="2.56152">
        <ele>71</ele>
        <time>2025-07-18T15:20:54Z</time>
      </trkpt>
      <trkpt lat="50.50609" lon="2.56204">
        <ele>68</ele>
        <time>2025-07-18T15:21:02Z</time>
      </trkpt>
      <trkpt lat="50.50598" lon="2.5623">
        <ele>65</ele>
        <time>2025-07-18T15:21:07Z</time>
      </trkpt>
      <trkpt lat="50.50565" lon="2.56282">
        <ele>62</ele>
        <time>2025-07-18T15:21:17Z</time>
      </trkpt>
      <trkpt lat="50.50553" lon="2.56312">
        <ele>60</ele>
        <time>2025-07-18T15:21:23Z</time>
      </trkpt>
      <trkpt lat="50.50527" lon="2.56332">
        <ele>59</ele>
        <time>2025-07-18T15:21:29Z</time>
      </trkpt>
      <trkpt lat="50.50496" lon="2.56325">
        <ele>58</ele>
        <time>2025-07-18T15:21:37Z</time>
      </trkpt>
      <trkpt lat="50.50483" lon="2.56318">
        <ele>58</ele>
        <time>2025-07-18T15:21:40Z</time>
      </trkpt>
      <trkpt lat="50.50458" lon="2.56296">
        <ele>59</ele>
        <time>2025-07-18T15:21:47Z</time>
      </trkpt>
      <trkpt lat="50.5045" lon="2.56283">
        <ele>60</ele>
        <time>2025-07-18T15:21:49Z</time>
      </trkpt>
      <trkpt lat="50.50426" lon="2.56328">
        <ele>57</ele>
        <time>2025-07-18T15:21:58Z</time>
      </trkpt>
      <trkpt lat="50.50414" lon="2.56341">
        <ele>56</ele>
        <time>2025-07-18T15:22:01Z</time>
      </trkpt>
      <trkpt lat="50.50406" lon="2.56339">
        <ele>56</ele>
        <time>2025-07-18T15:22:03Z</time>
      </trkpt>
      <trkpt lat="50.50402" lon="2.56281">
        <ele>60</ele>
        <time>2025-07-18T15:22:12Z</time>
      </trkpt>
      <trkpt lat="50.5041" lon="2.56132">
        <ele>70</ele>
        <time>2025-07-18T15:22:34Z</time>
      </trkpt>
      <trkpt lat="50.5042" lon="2.56025">
        <ele>76</ele>
        <time>2025-07-18T15:22:50Z</time>
      </trkpt>
      <trkpt lat="50.50434" lon="2.55931">
        <ele>79</ele>
        <time>2025-07-18T15:23:05Z</time>
      </trkpt>
      <trkpt lat="50.50448" lon="2.55909">
        <ele>79</ele>
        <time>2025-07-18T15:23:09Z</time>
      </trkpt>
      <trkpt lat="50.50458" lon="2.5591">
        <ele>79</ele>
        <time>2025-07-18T15:23:12Z</time>
      </trkpt>
      <trkpt lat="50.50497" lon="2.55878">
        <ele>77</ele>
        <time>2025-07-18T15:23:22Z</time>
      </trkpt>
      <trkpt lat="50.50529" lon="2.55865">
        <ele>78</ele>
        <time>2025-07-18T15:23:30Z</time>
      </trkpt>
      <trkpt lat="50.50554" lon="2.55862">
        <ele>79</ele>
        <time>2025-07-18T15:23:35Z</time>
      </trkpt>
      <trkpt lat="50.50574" lon="2.55854">
        <ele>80</ele>
        <time>2025-07-18T15:23:40Z</time>
      </trkpt>
      <trkpt lat="50.50614" lon="2.55854">
        <ele>83</ele>
        <time>2025-07-18T15:23:50Z</time>
      </trkpt>
      <trkpt lat="50.5063" lon="2.55836">
        <ele>85</ele>
        <time>2025-07-18T15:23:54Z</time>
      </trkpt>
      <trkpt lat="50.50665" lon="2.55811">
        <ele>89</ele>
        <time>2025-07-18T15:24:03Z</time>
      </trkpt>
      <trkpt lat="50.50668" lon="2.55796">
        <ele>90</ele>
        <time>2025-07-18T15:24:06Z</time>
      </trkpt>
      <trkpt lat="50.50662" lon="2.55776">
        <ele>91</ele>
        <time>2025-07-18T15:24:09Z</time>
      </trkpt>
      <trkpt lat="50.50679" lon="2.55741">
        <ele>93</ele>
        <time>2025-07-18T15:24:15Z</time>
      </trkpt>
      <trkpt lat="50.50687" lon="2.55705">
        <ele>92</ele>
        <time>2025-07-18T15:24:21Z</time>
      </trkpt>
      <trkpt lat="50.50681" lon="2.55649">
        <ele>93</ele>
        <time>2025-07-18T15:24:29Z</time>
      </trkpt>
      <trkpt lat="50.50665" lon="2.55613">
        <ele>94</ele>
        <time>2025-07-18T15:24:36Z</time>
      </trkpt>
      <trkpt lat="50.50639" lon="2.55576">
        <ele>92</ele>
        <time>2025-07-18T15:24:44Z</time>
      </trkpt>
      <trkpt lat="50.50613" lon="2.5556">
        <ele>90</ele>
        <time>2025-07-18T15:24:51Z</time>
      </trkpt>
      <trkpt lat="50.50577" lon="2.5556">
        <ele>88</ele>
        <time>2025-07-18T15:24:59Z</time>
      </trkpt>
      <trkpt lat="50.50541" lon="2.5559">
        <ele>86</ele>
        <time>2025-07-18T15:25:09Z</time>
      </trkpt>
      <trkpt lat="50.50514" lon="2.55626">
        <ele>83</ele>
        <time>2025-07-18T15:25:17Z</time>
      </trkpt>
      <trkpt lat="50.50497" lon="2.5564">
        <ele>81</ele>
        <time>2025-07-18T15:25:21Z</time>
      </trkpt>
      <trkpt lat="50.50464" lon="2.55704">
        <ele>81</ele>
        <time>2025-07-18T15:25:34Z</time>
      </trkpt>
      <trkpt lat="50.5046" lon="2.55705">
        <ele>82</ele>
        <time>2025-07-18T15:25:35Z</time>
      </trkpt>
      <trkpt lat="50.50456" lon="2.55694">
        <ele>82</ele>
        <time>2025-07-18T15:25:36Z</time>
      </trkpt>
      <trkpt lat="50.50463" lon="2.55655">
        <ele>82</ele>
        <time>2025-07-18T15:25:42Z</time>
      </trkpt>
      <trkpt lat="50.50476" lon="2.55619">
        <ele>82</ele>
        <time>2025-07-18T15:25:49Z</time>
      </trkpt>
      <trkpt lat="50.5052" lon="2.55526">
        <ele>87</ele>
        <time>2025-07-18T15:26:06Z</time>
      </trkpt>
      <trkpt lat="50.50564" lon="2.55476">
        <ele>88</ele>
        <time>2025-07-18T15:26:18Z</time>
      </trkpt>
      <trkpt lat="50.50586" lon="2.55459">
        <ele>87</ele>
        <time>2025-07-18T15:26:24Z</time>
      </trkpt>
      <trkpt lat="50.50606" lon="2.55455">
        <ele>87</ele>
        <time>2025-07-18T15:26:29Z</time>
      </trkpt>
      <trkpt lat="50.50614" lon="2.55442">
        <ele>87</ele>
        <time>2025-07-18T15:26:32Z</time>
      </trkpt>
      <trkpt lat="50.50648" lon="2.55339">
        <ele>86</ele>
        <time>2025-07-18T15:26:49Z</time>
      </trkpt>
      <trkpt lat="50.50755" lon="2.55143">
        <ele>90</ele>
        <time>2025-07-18T15:27:27Z</time>
      </trkpt>
      <trkpt lat="50.5077" lon="2.55067">
        <ele>89</ele>
        <time>2025-07-18T15:27:39Z</time>
      </trkpt>
      <trkpt lat="50.50811" lon="2.54977">
        <ele>88</ele>
        <time>2025-07-18T15:27:55Z</time>
      </trkpt>
      <trkpt lat="50.50816" lon="2.54958">
        <ele>89</ele>
        <time>2025-07-18T15:27:59Z</time>
      </trkpt>
      <trkpt lat="50.50812" lon="2.54887">
        <ele>90</ele>
        <time>2025-07-18T15:28:09Z</time>
      </trkpt>
      <trkpt lat="50.50795" lon="2.54798">
        <ele>90</ele>
        <time>2025-07-18T15:28:23Z</time>
      </trkpt>
      <trkpt lat="50.50793" lon="2.54704">
        <ele>90</ele>
        <time>2025-07-18T15:28:37Z</time>
      </trkpt>
      <trkpt lat="50.50781" lon="2.54665">
        <ele>90</ele>
        <time>2025-07-18T15:28:43Z</time>
      </trkpt>
      <trkpt lat="50.50769" lon="2.54575">
        <ele>88</ele>
        <time>2025-07-18T15:28:57Z</time>
      </trkpt>
      <trkpt lat="50.5075" lon="2.54555">
        <ele>88</ele>
        <time>2025-07-18T15:29:02Z</time>
      </trkpt>
      <trkpt lat="50.50758" lon="2.54471">
        <ele>83</ele>
        <time>2025-07-18T15:29:15Z</time>
      </trkpt>
      <trkpt lat="50.50768" lon="2.54442">
        <ele>80</ele>
        <time>2025-07-18T15:29:20Z</time>
      </trkpt>
      <trkpt lat="50.5079" lon="2.5441">
        <ele>76</ele>
        <time>2025-07-18T15:29:27Z</time>
      </trkpt>
      <trkpt lat="50.50776" lon="2.54346">
        <ele>72</ele>
        <time>2025-07-18T15:29:37Z</time>
      </trkpt>
      <trkpt lat="50.5077" lon="2.5434">
        <ele>72</ele>
        <time>2025-07-18T15:29:39Z</time>
      </trkpt>
      <trkpt lat="50.50748" lon="2.54339">
        <ele>74</ele>
        <time>2025-07-18T15:29:44Z</time>
      </trkpt>
      <trkpt lat="50.50709" lon="2.54348">
        <ele>77</ele>
        <time>2025-07-18T15:29:53Z</time>
      </trkpt>
      <trkpt lat="50.50659" lon="2.54339">
        <ele>80</ele>
        <time>2025-07-18T15:30:05Z</time>
      </trkpt>
      <trkpt lat="50.50649" lon="2.54354">
        <ele>81</ele>
        <time>2025-07-18T15:30:08Z</time>
      </trkpt>
      <trkpt lat="50.5064" lon="2.54358">
        <ele>81</ele>
        <time>2025-07-18T15:30:10Z</time>
      </trkpt>
      <trkpt lat="50.50612" lon="2.54352">
        <ele>82</ele>
        <time>2025-07-18T15:30:17Z</time>
      </trkpt>
      <trkpt lat="50.50576" lon="2.54358">
        <ele>82</ele>
        <time>2025-07-18T15:30:25Z</time>
      </trkpt>
      <trkpt lat="50.50563" lon="2.54355">
        <ele>82</ele>
        <time>2025-07-18T15:30:28Z</time>
      </trkpt>
      <trkpt lat="50.50547" lon="2.5434">
        <ele>81</ele>
        <time>2025-07-18T15:30:32Z</time>
      </trkpt>
      <trkpt lat="50.50544" lon="2.54346">
        <ele>82</ele>
        <time>2025-07-18T15:30:34Z</time>
      </trkpt>
      <trkpt lat="50.50554" lon="2.5434">
        <ele>82</ele>
        <time>2025-07-18T15:30:36Z</time>
      </trkpt>
      <trkpt lat="50.50554" lon="2.54332">
        <ele>81</ele>
        <time>2025-07-18T15:30:37Z</time>
      </trkpt>
      <trkpt lat="50.50545" lon="2.54323">
        <ele>81</ele>
        <time>2025-07-18T15:30:40Z</time>
      </trkpt>
      <trkpt lat="50.50538" lon="2.54325">
        <ele>81</ele>
        <time>2025-07-18T15:30:41Z</time>
      </trkpt>
      <trkpt lat="50.50534" lon="2.54322">
        <ele>81</ele>
        <time>2025-07-18T15:30:43Z</time>
      </trkpt>
      <trkpt lat="50.50523" lon="2.54302">
        <ele>81</ele>
        <time>2025-07-18T15:30:46Z</time>
      </trkpt>
      <trkpt lat="50.50536" lon="2.54283">
        <ele>81</ele>
        <time>2025-07-18T15:30:51Z</time>
      </trkpt>
      <trkpt lat="50.50549" lon="2.54279">
        <ele>81</ele>
        <time>2025-07-18T15:30:54Z</time>
      </trkpt>
      <trkpt lat="50.50589" lon="2.54305">
        <ele>81</ele>
        <time>2025-07-18T15:31:04Z</time>
      </trkpt>
      <trkpt lat="50.5061" lon="2.54307">
        <ele>81</ele>
        <time>2025-07-18T15:31:09Z</time>
      </trkpt>
      <trkpt lat="50.50622" lon="2.54313">
        <ele>80</ele>
        <time>2025-07-18T15:31:12Z</time>
      </trkpt>
      <trkpt lat="50.5065" lon="2.54339">
        <ele>80</ele>
        <time>2025-07-18T15:31:19Z</time>
      </trkpt>
      <trkpt lat="50.50679" lon="2.54348">
        <ele>79</ele>
        <time>2025-07-18T15:31:26Z</time>
      </trkpt>
      <trkpt lat="50.5074" lon="2.54337">
        <ele>75</ele>
        <time>2025-07-18T15:31:40Z</time>
      </trkpt>
      <trkpt lat="50.50769" lon="2.54316">
        <ele>71</ele>
        <time>2025-07-18T15:31:48Z</time>
      </trkpt>
      <trkpt lat="50.50769" lon="2.54294">
        <ele>70</ele>
        <time>2025-07-18T15:31:51Z</time>
      </trkpt>
      <trkpt lat="50.50739" lon="2.54253">
        <ele>70</ele>
        <time>2025-07-18T15:32:00Z</time>
      </trkpt>
      <trkpt lat="50.50718" lon="2.54243">
        <ele>72</ele>
        <time>2025-07-18T15:32:06Z</time>
      </trkpt>
      <trkpt lat="50.50702" lon="2.54243">
        <ele>73</ele>
        <time>2025-07-18T15:32:09Z</time>
      </trkpt>
      <trkpt lat="50.50671" lon="2.54233">
        <ele>75</ele>
        <time>2025-07-18T15:32:17Z</time>
      </trkpt>
      <trkpt lat="50.50655" lon="2.5424">
        <ele>77</ele>
        <time>2025-07-18T15:32:21Z</time>
      </trkpt>
      <trkpt lat="50.5061" lon="2.54248">
        <ele>79</ele>
        <time>2025-07-18T15:32:31Z</time>
      </trkpt>
      <trkpt lat="50.50598" lon="2.54257">
        <ele>80</ele>
        <time>2025-07-18T15:32:34Z</time>
      </trkpt>
      <trkpt lat="50.50589" lon="2.54255">
        <ele>80</ele>
        <time>2025-07-18T15:32:36Z</time>
      </trkpt>
      <trkpt lat="50.50537" lon="2.54189">
        <ele>80</ele>
        <time>2025-07-18T15:32:52Z</time>
      </trkpt>
      <trkpt lat="50.50533" lon="2.5417">
        <ele>81</ele>
        <time>2025-07-18T15:32:55Z</time>
      </trkpt>
      <trkpt lat="50.50525" lon="2.54155">
        <ele>82</ele>
        <time>2025-07-18T15:32:58Z</time>
      </trkpt>
      <trkpt lat="50.50509" lon="2.54135">
        <ele>85</ele>
        <time>2025-07-18T15:33:03Z</time>
      </trkpt>
      <trkpt lat="50.50496" lon="2.54128">
        <ele>87</ele>
        <time>2025-07-18T15:33:06Z</time>
      </trkpt>
      <trkpt lat="50.50514" lon="2.54148">
        <ele>84</ele>
        <time>2025-07-18T15:33:11Z</time>
      </trkpt>
      <trkpt lat="50.50544" lon="2.54226">
        <ele>80</ele>
        <time>2025-07-18T15:33:25Z</time>
      </trkpt>
      <trkpt lat="50.50555" lon="2.54245">
        <ele>80</ele>
        <time>2025-07-18T15:33:28Z</time>
      </trkpt>
      <trkpt lat="50.50565" lon="2.54253">
        <ele>80</ele>
        <time>2025-07-18T15:33:31Z</time>
      </trkpt>
      <trkpt lat="50.50633" lon="2.54233">
        <ele>77</ele>
        <time>2025-07-18T15:33:47Z</time>
      </trkpt>
      <trkpt lat="50.50659" lon="2.54243">
        <ele>77</ele>
        <time>2025-07-18T15:33:53Z</time>
      </trkpt>
      <trkpt lat="50.50692" lon="2.54247">
        <ele>74</ele>
        <time>2025-07-18T15:34:01Z</time>
      </trkpt>
      <trkpt lat="50.50706" lon="2.54264">
        <ele>74</ele>
        <time>2025-07-18T15:34:05Z</time>
      </trkpt>
      <trkpt lat="50.50742" lon="2.54288">
        <ele>72</ele>
        <time>2025-07-18T15:34:14Z</time>
      </trkpt>
      <trkpt lat="50.50769" lon="2.54318">
        <ele>71</ele>
        <time>2025-07-18T15:34:22Z</time>
      </trkpt>
      <trkpt lat="50.50875" lon="2.54297">
        <ele>58</ele>
        <time>2025-07-18T15:34:47Z</time>
      </trkpt>
      <trkpt lat="50.50947" lon="2.54297">
        <ele>51</ele>
        <time>2025-07-18T15:35:04Z</time>
      </trkpt>
      <trkpt lat="50.51001" lon="2.54292">
        <ele>49</ele>
        <time>2025-07-18T15:35:17Z</time>
      </trkpt>
      <trkpt lat="50.51027" lon="2.54292">
        <ele>48</ele>
        <time>2025-07-18T15:35:23Z</time>
      </trkpt>
      <trkpt lat="50.51091" lon="2.54304">
        <ele>44</ele>
        <time>2025-07-18T15:35:38Z</time>
      </trkpt>
      <trkpt lat="50.51176" lon="2.54307">
        <ele>44</ele>
        <time>2025-07-18T15:35:57Z</time>
      </trkpt>
      <trkpt lat="50.51259" lon="2.54242">
        <ele>38</ele>
        <time>2025-07-18T15:36:19Z</time>
      </trkpt>
      <trkpt lat="50.51289" lon="2.5423">
        <ele>37</ele>
        <time>2025-07-18T15:36:26Z</time>
      </trkpt>
      <trkpt lat="50.51319" lon="2.54233">
        <ele>36</ele>
        <time>2025-07-18T15:36:33Z</time>
      </trkpt>
      <trkpt lat="50.51341" lon="2.54227">
        <ele>35</ele>
        <time>2025-07-18T15:36:39Z</time>
      </trkpt>
      <trkpt lat="50.5138" lon="2.54207">
        <ele>34</ele>
        <time>2025-07-18T15:36:48Z</time>
      </trkpt>
      <trkpt lat="50.51396" lon="2.54186">
        <ele>33</ele>
        <time>2025-07-18T15:36:53Z</time>
      </trkpt>
      <trkpt lat="50.51405" lon="2.5418">
        <ele>33</ele>
        <time>2025-07-18T15:36:55Z</time>
      </trkpt>
      <trkpt lat="50.51445" lon="2.54245">
        <ele>32</ele>
        <time>2025-07-18T15:37:09Z</time>
      </trkpt>
      <trkpt lat="50.51478" lon="2.54281">
        <ele>32</ele>
        <time>2025-07-18T15:37:18Z</time>
      </trkpt>
      <trkpt lat="50.51508" lon="2.54325">
        <ele>32</ele>
        <time>2025-07-18T15:37:28Z</time>
      </trkpt>
      <trkpt lat="50.51579" lon="2.54476">
        <ele>33</ele>
        <time>2025-07-18T15:37:56Z</time>
      </trkpt>
      <trkpt lat="50.51679" lon="2.54658">
        <ele>30</ele>
        <time>2025-07-18T15:38:31Z</time>
      </trkpt>
      <trkpt lat="50.51748" lon="2.54795">
        <ele>30</ele>
        <time>2025-07-18T15:38:57Z</time>
      </trkpt>
      <trkpt lat="50.51779" lon="2.54878">
        <ele>29</ele>
        <time>2025-07-18T15:39:12Z</time>
      </trkpt>
      <trkpt lat="50.5181" lon="2.54946">
        <ele>28</ele>
        <time>2025-07-18T15:39:24Z</time>
      </trkpt>
      <trkpt lat="50.51948" lon="2.55217">
        <ele>28</ele>
        <time>2025-07-18T15:40:16Z</time>
      </trkpt>
      <trkpt lat="50.52069" lon="2.55432">
        <ele>27</ele>
        <time>2025-07-18T15:40:58Z</time>
      </trkpt>
      <trkpt lat="50.52217" lon="2.55717">
        <ele>26</ele>
        <time>2025-07-18T15:41:53Z</time>
      </trkpt>
      <trkpt lat="50.52268" lon="2.55828">
        <ele>25</ele>
        <time>2025-07-18T15:42:13Z</time>
      </trkpt>
      <trkpt lat="50.52294" lon="2.55895">
        <ele>25</ele>
        <time>2025-07-18T15:42:25Z</time>
      </trkpt>
      <trkpt lat="50.52318" lon="2.55978">
        <ele>26</ele>
        <time>2025-07-18T15:42:38Z</time>
      </trkpt>
      <trkpt lat="50.52346" lon="2.56056">
        <ele>27</ele>
        <time>2025-07-18T15:42:52Z</time>
      </trkpt>
      <trkpt lat="50.52361" lon="2.56075">
        <ele>27</ele>
        <time>2025-07-18T15:42:56Z</time>
      </trkpt>
      <trkpt lat="50.52371" lon="2.56102">
        <ele>27</ele>
        <time>2025-07-18T15:43:01Z</time>
      </trkpt>
      <trkpt lat="50.52394" lon="2.56193">
        <ele>27</ele>
        <time>2025-07-18T15:43:15Z</time>
      </trkpt>
      <trkpt lat="50.52446" lon="2.56366">
        <ele>25</ele>
        <time>2025-07-18T15:43:44Z</time>
      </trkpt>
      <trkpt lat="50.52512" lon="2.56526">
        <ele>30</ele>
        <time>2025-07-18T15:44:12Z</time>
      </trkpt>
      <trkpt lat="50.52543" lon="2.56472">
        <ele>26.6</ele>
        <time>2025-07-18T15:44:15Z</time>
      </trkpt>
      <trkpt lat="50.5257" lon="2.56395">
        <ele>26.2</ele>
        <time>2025-07-18T15:44:16Z</time>
      </trkpt>
      <trkpt lat="50.52662" lon="2.56198">
        <ele>26</ele>
      </trkpt>
      <trkpt lat="50.52726" lon="2.56047">
        <ele>27</ele>
        <time>2025-07-18T15:44:27Z</time>
      </trkpt>
      <trkpt lat="50.52986" lon="2.56351">
        <ele>27.3</ele>
      </trkpt>
      <trkpt lat="50.53105" lon="2.56467">
        <ele>27</ele>
      </trkpt>
      <trkpt lat="50.53463" lon="2.5647">
        <ele>34.7</ele>
      </trkpt>
      <trkpt lat="50.53684" lon="2.56476">
        <ele>35.5</ele>
      </trkpt>
      <trkpt lat="50.53844" lon="2.56704">
        <ele>29.8</ele>
        <time>2025-07-18T15:44:37Z</time>
      </trkpt>
      <trkpt lat="50.53773" lon="2.56907">
        <ele>28.4</ele>
      </trkpt>
      <trkpt lat="50.5375" lon="2.57272">
        <ele>24</ele>
      </trkpt>
      <trkpt lat="50.53721" lon="2.57365">
        <ele>26</ele>
      </trkpt>
      <trkpt lat="50.53708" lon="2.57462">
        <ele>26.5</ele>
      </trkpt>
      <trkpt lat="50.53644" lon="2.57549">
        <ele>25.2</ele>
      </trkpt>
      <trkpt lat="50.53637" lon="2.57612">
        <ele>24</ele>
      </trkpt>
      <trkpt lat="50.53669" lon="2.5759">
        <ele>24.8</ele>
      </trkpt>
      <trkpt lat="50.53697" lon="2.57595">
        <ele>25</ele>
      </trkpt>
      <trkpt lat="50.53752" lon="2.57611">
        <ele>24.9</ele>
      </trkpt>
      <trkpt lat="50.53752" lon="2.57649">
        <ele>25.3</ele>
      </trkpt>
      <trkpt lat="50.53717" lon="2.57661">
        <ele>25.8</ele>
      </trkpt>
      <trkpt lat="50.53678" lon="2.57661">
        <ele>25.8</ele>
      </trkpt>
      <trkpt lat="50.53646" lon="2.57677">
        <ele>25.9</ele>
      </trkpt>
      <trkpt lat="50.53611" lon="2.57735">
        <ele>28</ele>
      </trkpt>
      <trkpt lat="50.53601" lon="2.5778">
        <ele>30.1</ele>
      </trkpt>
      <trkpt lat="50.53609" lon="2.57804">
        <ele>30.9</ele>
      </trkpt>
      <trkpt lat="50.53594" lon="2.57814">
        <ele>30.8</ele>
      </trkpt>
      <trkpt lat="50.53549" lon="2.57905">
        <ele>32.1</ele>
      </trkpt>
      <trkpt lat="50.53503" lon="2.5798">
        <ele>35.1</ele>
      </trkpt>
      <trkpt lat="50.53477" lon="2.57995">
        <ele>35.8</ele>
      </trkpt>
      <trkpt lat="50.53439" lon="2.5805">
        <ele>35.1</ele>
      </trkpt>
      <trkpt lat="50.53416" lon="2.58194">
        <ele>38.9</ele>
      </trkpt>
      <trkpt lat="50.533" lon="2.58541">
        <ele>40.5</ele>
      </trkpt>
      <trkpt lat="50.53318" lon="2.58681">
        <ele>44.6</ele>
      </trkpt>
      <trkpt lat="50.53267" lon="2.58782">
        <ele>44.8</ele>
        <time>2025-07-18T14:41:46Z</time>
      </trkpt>
    </trkseg>
  </trk>
</gpx>